Time;durP1;ratioP1;P1;durP2;ratioP2;P2;SDS_P1;SDS_P2;PMS_P1;PMS_P2;Temp;Humidity;BMP_temperature;BMP_pressure;BME280_temperature;BME280_humidity;BME280_pressure;Samples;Min_cycle;Max_cycle;Signal;HPM_P1;HPM_P2
2022/01/16 00:04:41;;;;;;;102.65;41.02;;;;;;;-4.42;61.72;95212.46;1700833;82;21518;-58
2022/01/16 00:07:11;;;;;;;110.63;42.88;;;;;;;-4.39;61.98;95202.38;1714233;81;21136;-58
2022/01/16 00:09:38;;;;;;;96.90;38.67;;;;;;;-4.40;62.12;95204.84;1661277;82;21002;-59
2022/01/16 00:12:07;;;;;;;99.90;39.60;;;;;;;-4.35;61.86;95191.17;1629321;85;21151;-60
2022/01/16 00:14:34;;;;;;;106.50;41.88;;;;;;;-4.32;61.71;95191.27;1674662;85;20967;-59
2022/01/16 00:17:04;;;;;;;97.42;39.53;;;;;;;-4.32;61.29;95187.25;1657376;85;21004;-59
2022/01/16 00:19:31;;;;;;;78.52;35.65;;;;;;;-4.46;61.24;95195.48;1676542;85;21022;-58
2022/01/16 00:22:00;;;;;;;77.75;35.35;;;;;;;-4.58;61.74;95183.44;1646514;85;21453;-59
2022/01/16 00:24:27;;;;;;;78.75;37.00;;;;;;;-4.62;61.76;95178.53;1645515;87;21148;-58
2022/01/16 00:26:54;;;;;;;145.90;51.00;;;;;;;-4.69;61.97;95181.00;1665825;85;21558;-58
2022/01/16 00:29:20;;;;;;;143.65;50.00;;;;;;;-4.75;62.15;95183.14;1679387;84;21463;-58
2022/01/16 00:31:47;;;;;;;69.45;31.97;;;;;;;-4.91;62.34;95197.06;1678080;85;21030;-59
2022/01/16 00:34:14;;;;;;;113.88;42.73;;;;;;;-5.12;62.50;95202.34;1642975;85;21021;-63
2022/01/16 00:36:40;;;;;;;105.92;39.80;;;;;;;-5.34;62.92;95186.73;1680685;85;22151;-60
2022/01/16 00:39:07;;;;;;;79.22;29.65;;;;;;;-5.40;63.59;95185.38;1673638;84;21069;-59
2022/01/16 00:41:37;;;;;;;79.87;30.85;;;;;;;-5.35;63.94;95195.09;1657155;85;20985;-58
2022/01/16 00:44:04;;;;;;;95.60;33.20;;;;;;;-5.22;63.90;95205.47;1677748;84;21005;-59
2022/01/16 00:46:32;;;;;;;103.65;34.73;;;;;;;-5.10;63.63;95207.59;1674175;84;21463;-58
2022/01/16 00:48:59;;;;;;;81.57;34.30;;;;;;;-5.00;63.31;95206.36;1658051;84;21153;-58
2022/01/16 00:51:25;;;;;;;81.87;32.35;;;;;;;-4.95;63.32;95231.02;1639843;85;21117;-60
2022/01/16 00:53:56;;;;;;;73.45;32.17;;;;;;;-4.87;63.17;95233.36;1680693;85;21783;-60
2022/01/16 00:56:22;;;;;;;123.42;48.58;;;;;;;-4.83;62.90;95198.82;1681064;84;20983;-59
2022/01/16 00:58:50;;;;;;;164.20;62.95;;;;;;;-4.83;62.60;95180.62;1676032;84;20995;-59
2022/01/16 01:01:18;;;;;;;128.10;49.88;;;;;;;-4.92;62.72;95190.14;1661052;84;21168;-59
2022/01/16 01:03:47;;;;;;;104.53;47.15;;;;;;;-4.88;62.92;95189.67;1674562;85;20987;-58
2022/01/16 01:06:13;;;;;;;75.37;33.23;;;;;;;-4.80;62.48;95177.25;1676322;85;21031;-58
2022/01/16 01:08:41;;;;;;;59.15;27.52;;;;;;;-4.84;62.26;95193.78;1665437;85;21038;-59
2022/01/16 01:11:13;;;;;;;149.95;54.83;;;;;;;-5.02;62.24;95177.73;1662713;85;21011;-58
2022/01/16 01:14:14;;;;;;;100.55;41.40;;;;;;;-5.30;62.49;95203.12;1646954;87;21355;-58
2022/01/16 01:16:27;;;;;;;79.32;34.80;;;;;;;-5.40;63.43;95227.49;1715714;81;21010;-59
2022/01/16 01:18:56;;;;;;;63.33;30.55;;;;;;;-5.40;63.18;95180.02;1683046;82;21108;-58
2022/01/16 01:21:28;;;;;;;80.87;34.00;;;;;;;-5.43;63.09;95143.74;1708867;82;21556;-59
2022/01/16 01:23:57;;;;;;;77.55;35.03;;;;;;;-5.47;63.11;95168.28;1702855;82;21077;-59
2022/01/16 01:26:29;;;;;;;81.53;36.28;;;;;;;-5.45;63.32;95188.29;1726335;82;21950;-59
2022/01/16 01:28:53;;;;;;;78.07;34.30;;;;;;;-5.43;63.46;95092.25;1721403;82;21131;-57
2022/01/16 01:31:20;;;;;;;82.60;37.75;;;;;;;-5.35;63.30;95067.23;1727420;82;21082;-58
2022/01/16 01:33:47;;;;;;;83.22;37.40;;;;;;;-5.35;62.83;95073.94;1735941;81;21020;-61
2022/01/16 01:36:17;;;;;;;83.30;39.98;;;;;;;-5.38;62.61;95074.58;1715238;81;20990;-57
2022/01/16 01:38:44;;;;;;;80.38;34.55;;;;;;;-5.37;63.23;95050.71;1733095;81;21153;-57
2022/01/16 01:41:10;;;;;;;71.17;33.10;;;;;;;-5.25;62.81;95049.31;1718083;82;21044;-62
2022/01/16 01:51:44;;;;;;;68.30;30.90;;;;;;;-5.31;62.21;95116.36;1691556;82;21177;-59
2022/01/16 01:54:09;;;;;;;58.08;28.50;;;;;;;-5.33;62.33;95107.87;1729830;82;21045;-60
2022/01/16 01:56:44;;;;;;;53.95;26.85;;;;;;;-5.42;62.01;95129.98;1722845;82;21022;-57
2022/01/16 01:59:11;;;;;;;55.90;26.97;;;;;;;-5.51;62.74;95149.44;1672372;82;21854;-58
2022/01/16 02:01:39;;;;;;;107.15;42.05;;;;;;;-5.44;62.73;95153.67;1713608;81;21076;-59
2022/01/16 02:04:06;;;;;;;86.37;37.23;;;;;;;-5.53;62.37;95108.80;1715378;81;21212;-58
2022/01/16 02:06:34;;;;;;;140.28;57.62;;;;;;;-5.68;62.91;95099.31;1742711;81;21427;-62
2022/01/16 02:09:06;;;;;;;89.92;41.90;;;;;;;-5.77;63.13;95120.86;1713552;81;21057;-61
2022/01/16 02:11:34;;;;;;;83.50;38.30;;;;;;;-5.90;63.02;95121.23;1667146;84;21649;-58
2022/01/16 02:28:20;;;;;;;78.85;36.55;;;;;;;-5.64;63.25;95159.94;1756275;80;21059;-59
2022/01/16 02:36:16;;;;;;;125.12;55.50;;;;;;;-6.04;63.73;95181.01;1727606;81;21105;-60
2022/01/16 02:38:45;;;;;;;115.07;52.57;;;;;;;-6.08;63.96;95180.91;1732559;81;21041;-58
2022/01/16 02:41:11;;;;;;;112.20;52.17;;;;;;;-6.18;63.82;95178.64;1729131;81;21519;-59
2022/01/16 02:43:45;;;;;;;112.97;52.15;;;;;;;-6.20;63.99;95186.23;1690727;82;21145;-59
2022/01/16 02:48:48;;;;;;;74.05;37.53;;;;;;;-6.27;63.95;95191.35;1712483;81;20995;-59
2022/01/16 02:51:21;;;;;;;70.92;34.90;;;;;;;-6.28;63.94;95184.98;1693997;82;21581;-59
2022/01/16 02:53:48;;;;;;;95.95;41.83;;;;;;;-6.25;64.14;95188.33;1749882;81;21061;-59
2022/01/16 02:56:18;;;;;;;285.25;109.27;;;;;;;-6.20;63.92;95200.16;1716720;81;21680;-59
2022/01/16 02:58:45;;;;;;;108.85;46.63;;;;;;;-6.23;63.88;95193.59;1697112;82;21213;-59
2022/01/16 03:01:13;;;;;;;101.00;45.30;;;;;;;-6.30;63.85;95193.89;1675574;83;21509;-59
2022/01/16 03:03:40;;;;;;;92.05;41.28;;;;;;;-6.35;64.11;95190.86;1702649;83;20998;-58
2022/01/16 03:06:10;;;;;;;92.67;42.13;;;;;;;-6.34;64.28;95191.09;1705758;83;21058;-59
2022/01/16 03:08:40;;;;;;;80.28;37.20;;;;;;;-6.24;64.32;95188.01;1686340;84;21184;-59
2022/01/16 03:13:50;;;;;;;63.78;31.65;;;;;;;-6.30;63.82;95186.63;1678510;83;21045;-58
2022/01/16 03:16:19;;;;;;;69.50;32.70;;;;;;;-6.41;63.82;95187.38;1650889;81;21024;-60
2022/01/16 03:24:29;;;;;;;71.97;34.70;;;;;;;-6.66;64.28;95193.19;1709288;81;21049;-65
2022/01/16 03:26:58;;;;;;;74.03;33.28;;;;;;;-6.67;64.19;95188.95;1738070;82;21014;-59
2022/01/16 03:29:26;;;;;;;70.67;35.28;;;;;;;-6.68;64.36;95186.05;1737933;81;21028;-59
2022/01/16 03:31:55;;;;;;;68.72;32.08;;;;;;;-6.62;64.14;95179.41;1712829;82;21586;-58
2022/01/16 03:34:22;;;;;;;62.20;30.85;;;;;;;-6.57;64.44;95179.20;1731606;81;21100;-61
2022/01/16 03:36:49;;;;;;;99.60;43.75;;;;;;;-6.41;64.28;95178.81;1748580;80;20971;-58
2022/01/16 03:39:17;;;;;;;110.70;48.10;;;;;;;-6.34;63.79;95175.03;1735734;81;21105;-58
2022/01/16 03:41:44;;;;;;;120.08;54.08;;;;;;;-6.38;63.64;95175.47;1765050;80;21029;-59
2022/01/16 03:44:11;;;;;;;107.12;46.37;;;;;;;-6.40;63.50;95175.02;1762645;80;21061;-56
2022/01/16 03:46:44;;;;;;;99.72;44.23;;;;;;;-6.52;63.28;95168.86;1746272;80;21468;-57
2022/01/16 03:49:16;;;;;;;86.60;39.42;;;;;;;-6.72;63.37;95173.69;1688705;81;21093;-59
2022/01/16 03:51:46;;;;;;;71.62;34.78;;;;;;;-6.87;63.88;95161.68;1704435;81;21029;-57
2022/01/16 03:54:15;;;;;;;81.30;38.67;;;;;;;-6.85;64.41;95171.49;1721707;82;21009;-57
2022/01/16 03:56:42;;;;;;;84.62;39.75;;;;;;;-6.78;64.39;95173.64;1695015;82;20987;-58
2022/01/16 03:59:10;;;;;;;65.60;32.67;;;;;;;-6.70;64.16;95176.81;1723692;80;21145;-59
2022/01/16 04:01:38;;;;;;;63.58;33.70;;;;;;;-6.59;64.09;95175.28;1733761;82;20987;-58
2022/01/16 04:04:05;;;;;;;70.05;33.28;;;;;;;-6.59;63.71;95168.05;1725949;82;21013;-57
2022/01/16 04:06:33;;;;;;;65.62;30.95;;;;;;;-6.55;64.06;95166.27;1723695;81;21039;-59
2022/01/16 04:09:06;;;;;;;59.42;28.92;;;;;;;-6.46;63.71;95177.69;1711217;82;20960;-58
2022/01/16 04:11:32;;;;;;;62.03;29.90;;;;;;;-6.35;63.30;95169.45;1708254;81;21599;-59
2022/01/16 04:14:09;;;;;;;59.48;29.75;;;;;;;-6.27;62.68;95173.16;1718084;81;21025;-58
2022/01/16 04:16:34;;;;;;;56.75;29.07;;;;;;;-6.26;62.74;95170.16;1728427;81;21188;-58
2022/01/16 04:19:00;;;;;;;56.28;30.88;;;;;;;-6.27;62.39;95173.16;1744223;82;21010;-58
2022/01/16 04:21:29;;;;;;;65.72;34.18;;;;;;;-6.26;62.25;95186.77;1722687;81;21543;-58
2022/01/16 04:23:56;;;;;;;65.87;34.03;;;;;;;-6.26;62.02;95182.20;1751079;81;21122;-58
2022/01/16 04:26:25;;;;;;;76.40;37.75;;;;;;;-6.27;62.39;95178.52;1761711;81;21203;-58
2022/01/16 04:28:53;;;;;;;90.30;44.83;;;;;;;-6.20;62.27;95175.52;1736665;80;21059;-61
2022/01/16 04:31:20;;;;;;;124.58;59.55;;;;;;;-6.16;61.96;95172.97;1756886;80;21065;-57
2022/01/16 04:33:47;;;;;;;118.70;58.10;;;;;;;-6.12;61.75;95178.65;1755114;80;20994;-60
2022/01/16 04:36:14;;;;;;;125.40;61.92;;;;;;;-6.15;61.59;95173.96;1734622;80;22114;-58
2022/01/16 04:38:45;;;;;;;112.35;52.13;;;;;;;-6.24;61.55;95178.64;1728961;81;21408;-58
2022/01/16 04:43:55;;;;;;;136.03;68.45;;;;;;;-6.50;62.15;95182.11;1736125;81;20951;-58
2022/01/16 04:46:27;;;;;;;112.83;56.83;;;;;;;-6.53;61.98;95177.42;1746524;81;21211;-57
2022/01/16 04:48:55;;;;;;;107.37;55.98;;;;;;;-6.61;62.12;95169.48;1724242;81;21788;-60
2022/01/16 04:51:24;;;;;;;99.28;48.73;;;;;;;-6.69;62.17;95169.78;1714387;81;21054;-58
2022/01/16 04:53:53;;;;;;;96.10;43.63;;;;;;;-6.87;62.22;95175.05;1696142;81;21015;-58
2022/01/16 04:56:19;;;;;;;93.15;44.25;;;;;;;-7.05;62.53;95174.73;1732973;81;21456;-58
2022/01/16 04:58:46;;;;;;;93.60;44.58;;;;;;;-7.17;63.37;95172.01;1718579;81;21077;-58
2022/01/16 05:01:13;;;;;;;102.45;50.73;;;;;;;-7.05;63.80;95173.39;1705744;83;21467;-59
2022/01/16 05:03:39;;;;;;;110.15;50.58;;;;;;;-6.95;63.73;95170.57;1719384;83;21018;-61
2022/01/16 05:06:07;;;;;;;103.40;50.98;;;;;;;-6.89;63.65;95175.94;1698431;82;22289;-59
2022/01/16 05:08:34;;;;;;;114.35;58.60;;;;;;;-6.84;63.29;95170.41;1674109;83;21015;-58
2022/01/16 05:11:00;;;;;;;121.67;61.37;;;;;;;-6.86;62.74;95163.24;1705993;82;21043;-59
2022/01/16 05:16:34;;;;;;;125.02;58.73;;;;;;;-6.91;63.11;95159.44;1671487;83;21159;-59
2022/01/16 05:18:43;;;;;;;153.78;68.65;;;;;;;-6.73;62.89;95155.51;1690872;82;21117;-59
2022/01/16 05:21:10;;;;;;;140.62;65.50;;;;;;;-6.71;62.79;95165.32;1742331;82;21082;-59
2022/01/16 05:23:41;;;;;;;120.90;55.78;;;;;;;-6.66;62.75;95165.11;1751349;81;21090;-60
2022/01/16 05:26:08;;;;;;;147.00;66.57;;;;;;;-6.62;62.21;95165.24;1727643;81;21178;-62
2022/01/16 05:28:35;;;;;;;161.18;71.82;;;;;;;-6.75;62.08;95155.06;1721653;82;21194;-58
2022/01/16 05:31:04;;;;;;;155.00;65.32;;;;;;;-6.80;62.27;95167.84;1726672;82;21099;-59
2022/01/16 05:33:31;;;;;;;151.87;67.08;;;;;;;-6.86;62.41;95163.81;1724663;81;21011;-59
2022/01/16 05:35:58;;;;;;;160.95;71.22;;;;;;;-6.95;62.43;95165.22;1715008;81;21061;-57
2022/01/16 05:38:27;;;;;;;166.05;69.00;;;;;;;-6.99;62.99;95165.43;1726421;82;41553;-58
2022/01/16 05:40:57;;;;;;;137.60;59.70;;;;;;;-6.90;63.09;95163.68;1742902;80;21447;-59
2022/01/16 05:43:24;;;;;;;116.12;53.98;;;;;;;-6.76;63.32;95168.74;1716892;82;21069;-58
2022/01/16 05:45:51;;;;;;;112.92;50.75;;;;;;;-6.65;62.68;95167.24;1718840;82;21182;-59
2022/01/16 05:48:17;;;;;;;83.30;38.83;;;;;;;-6.66;62.47;95172.36;1720655;82;21078;-59
2022/01/16 05:50:46;;;;;;;79.03;42.03;;;;;;;-6.76;61.89;95172.75;1702143;83;21120;-59
2022/01/16 05:53:14;;;;;;;98.33;46.00;;;;;;;-6.98;62.03;95176.34;1697303;83;21411;-59
2022/01/16 05:55:41;;;;;;;106.22;47.45;;;;;;;-7.14;62.28;95174.80;1711691;83;21533;-58
2022/01/16 05:58:08;;;;;;;113.55;52.88;;;;;;;-7.19;62.96;95174.23;1711745;83;21125;-59
2022/01/16 06:00:37;;;;;;;122.82;60.60;;;;;;;-7.08;63.10;95188.75;1693396;83;21223;-59
2022/01/16 06:03:05;;;;;;;123.40;60.03;;;;;;;-6.92;63.03;95189.96;1704744;83;21179;-59
2022/01/16 06:05:31;;;;;;;85.72;43.60;;;;;;;-6.94;62.54;95184.16;1682876;83;21136;-60
2022/01/16 06:08:06;;;;;;;94.67;45.67;;;;;;;-6.95;62.51;95193.29;1699821;81;21149;-60
2022/01/16 06:10:28;;;;;;;94.07;43.95;;;;;;;-6.98;62.62;95189.71;1704121;81;21067;-59
2022/01/16 06:12:54;;;;;;;95.90;49.93;;;;;;;-7.02;62.80;95198.92;1691885;83;21040;-59
2022/01/16 06:15:22;;;;;;;110.40;58.13;;;;;;;-7.03;62.93;95187.21;1728141;81;21086;-58
2022/01/16 06:17:50;;;;;;;124.27;65.83;;;;;;;-7.05;63.17;95190.77;1723519;82;21002;-62
2022/01/16 06:20:17;;;;;;;123.70;66.05;;;;;;;-6.96;63.18;95197.61;1741895;81;21081;-59
2022/01/16 06:22:45;;;;;;;104.43;52.30;;;;;;;-6.99;62.92;95205.52;1729469;81;21700;-61
2022/01/16 06:25:12;;;;;;;95.70;52.05;;;;;;;-7.00;63.29;95210.08;1733108;81;21547;-60
2022/01/16 06:27:40;;;;;;;89.62;47.80;;;;;;;-6.92;63.50;95206.00;1759184;80;21189;-59
2022/01/16 06:30:09;;;;;;;82.62;43.60;;;;;;;-6.78;63.03;95208.41;1746112;80;21033;-59
2022/01/16 06:32:38;;;;;;;77.58;41.75;;;;;;;-6.72;62.83;95209.22;1731059;81;21062;-59
2022/01/16 06:35:06;;;;;;;75.80;43.30;;;;;;;-6.71;62.43;95209.45;1751934;80;21180;-60
2022/01/16 06:37:34;;;;;;;79.53;41.70;;;;;;;-6.79;62.20;95206.84;1744281;81;21433;-60
2022/01/16 06:40:03;;;;;;;86.72;46.48;;;;;;;-6.91;62.44;95195.53;1752080;80;21090;-60
2022/01/16 06:42:30;;;;;;;107.78;56.28;;;;;;;-6.91;62.56;95207.56;1759384;81;20947;-61
2022/01/16 06:44:57;;;;;;;105.95;52.78;;;;;;;-6.88;62.56;95210.16;1760560;81;21099;-59
2022/01/16 06:47:24;;;;;;;90.80;47.70;;;;;;;-6.88;62.69;95210.92;1768793;80;21002;-61
2022/01/16 06:49:51;;;;;;;84.97;47.13;;;;;;;-6.82;62.88;95201.61;1731926;81;21104;-61
2022/01/16 06:52:17;;;;;;;165.28;84.10;;;;;;;-6.69;62.89;95211.23;1719773;81;21164;-60
2022/01/16 06:54:45;;;;;;;123.65;64.65;;;;;;;-6.50;62.56;95208.09;1730484;81;21014;-59
2022/01/16 06:57:12;;;;;;;76.40;43.38;;;;;;;-6.44;62.08;95212.13;1737350;81;21069;-58
2022/01/16 06:59:39;;;;;;;72.90;39.88;;;;;;;-6.50;61.95;95210.20;1715864;82;21051;-60
2022/01/16 07:02:07;;;;;;;74.85;41.55;;;;;;;-6.57;62.33;95204.61;1706702;83;21232;-59
2022/01/16 07:04:33;;;;;;;77.60;42.30;;;;;;;-6.50;62.22;95203.52;1714235;81;21418;-58
2022/01/16 07:07:01;;;;;;;79.60;43.52;;;;;;;-6.43;62.47;95203.78;1712473;82;20993;-61
2022/01/16 07:09:28;;;;;;;84.55;45.33;;;;;;;-6.31;62.33;95201.13;1737596;81;21147;-62
2022/01/16 07:11:55;;;;;;;81.85;46.02;;;;;;;-6.23;62.29;95195.47;1735416;81;20964;-63
2022/01/16 07:14:26;;;;;;;65.85;36.50;;;;;;;-6.07;62.34;95193.19;1720211;82;21122;-59
2022/01/16 07:16:55;;;;;;;80.17;42.95;;;;;;;-5.88;61.89;95192.64;1714305;83;21163;-63
2022/01/16 07:19:22;;;;;;;86.67;45.43;;;;;;;-5.90;61.59;95197.01;1722745;82;21115;-61
2022/01/16 07:21:48;;;;;;;65.72;35.63;;;;;;;-5.93;61.80;95188.28;1721009;82;21088;-61
2022/01/16 07:24:16;;;;;;;69.47;37.33;;;;;;;-5.77;61.68;95172.33;1707291;83;21019;-60
2022/01/16 07:26:43;;;;;;;92.65;50.67;;;;;;;-5.74;61.46;95181.82;1732805;81;20965;-60
2022/01/16 07:29:12;;;;;;;108.47;57.58;;;;;;;-5.70;61.70;95177.36;1696867;82;21127;-62
2022/01/16 07:31:38;;;;;;;95.15;52.98;;;;;;;-5.52;61.40;95178.70;1728306;81;20989;-61
2022/01/16 07:34:09;;;;;;;88.20;49.83;;;;;;;-5.45;61.27;95188.86;1729844;81;20994;-60
2022/01/16 07:36:36;;;;;;;70.15;39.75;;;;;;;-5.46;61.61;95190.74;1728778;82;21093;-60
2022/01/16 07:39:03;;;;;;;65.85;35.43;;;;;;;-5.28;61.80;95196.09;1660029;83;20995;-59
2022/01/16 07:41:32;;;;;;;63.23;31.33;;;;;;;-5.12;61.23;95199.66;1727326;81;21416;-60
2022/01/16 07:43:59;;;;;;;84.87;41.63;;;;;;;-5.09;61.06;95202.45;1729098;82;21004;-59
2022/01/16 07:46:27;;;;;;;82.72;42.58;;;;;;;-5.15;61.12;95194.98;1726340;81;22224;-60
2022/01/16 07:48:54;;;;;;;72.87;38.70;;;;;;;-5.12;61.24;95206.36;1712032;80;21076;-60
2022/01/16 07:51:22;;;;;;;75.42;37.88;;;;;;;-5.09;60.88;95204.34;1761406;80;21411;-60
2022/01/16 07:53:52;;;;;;;81.72;43.23;;;;;;;-5.17;61.01;95203.92;1762345;81;21089;-63
2022/01/16 07:56:19;;;;;;;79.58;45.03;;;;;;;-5.09;61.44;95193.62;1758010;80;21404;-59
2022/01/16 07:58:46;;;;;;;92.88;48.70;;;;;;;-5.00;60.97;95188.92;1717981;81;21545;-61
2022/01/16 08:01:13;;;;;;;107.83;55.83;;;;;;;-5.02;60.90;95188.45;1726495;81;20995;-60
2022/01/16 08:03:40;;;;;;;110.65;58.08;;;;;;;-5.06;60.92;95192.94;1757265;81;21503;-60
2022/01/16 08:06:07;;;;;;;112.65;59.83;;;;;;;-5.09;61.27;95189.59;1741912;81;21173;-60
2022/01/16 08:08:34;;;;;;;113.55;58.70;;;;;;;-5.10;61.30;95194.73;1731061;82;21032;-62
2022/01/16 08:11:08;;;;;;;123.02;67.27;;;;;;;-5.09;61.45;95180.20;1686571;82;21202;-60
2022/01/16 08:13:34;;;;;;;133.95;66.82;;;;;;;-5.03;61.70;95187.69;1715911;81;22256;-62
2022/01/16 08:16:05;;;;;;;130.25;68.45;;;;;;;-4.88;61.71;95184.31;1727634;81;20979;-59
2022/01/16 08:18:34;;;;;;;;;;;;;;;-4.73;61.61;95190.86;1714603;81;20998;-60
2022/01/16 08:21:03;;;;;;;76.02;40.23;;;;;;;-4.54;61.53;95188.34;1730982;82;20137;-65
2022/01/16 08:23:30;;;;;;;99.10;51.63;;;;;;;-4.41;61.38;95186.59;1730135;81;21022;-61
2022/01/16 08:25:57;;;;;;;101.62;54.65;;;;;;;-4.31;61.40;95179.41;1750695;80;21145;-63
2022/01/16 08:28:23;;;;;;;95.87;50.90;;;;;;;-4.08;61.22;95176.37;1744655;80;21131;-60
2022/01/16 08:30:53;;;;;;;102.38;52.53;;;;;;;-3.78;61.11;95178.09;1731234;81;21839;-60
2022/01/16 08:33:20;;;;;;;129.55;66.95;;;;;;;-3.44;60.54;95168.20;1718824;82;21071;-61
2022/01/16 08:35:50;;;;;;;108.72;56.23;;;;;;;-3.28;60.00;95166.28;1720340;82;21096;-61
2022/01/16 08:38:17;;;;;;;114.15;58.63;;;;;;;-3.12;59.67;95160.31;1705942;80;21078;-61
2022/01/16 08:40:44;;;;;;;120.80;63.23;;;;;;;-2.99;59.55;95151.00;1711425;81;20958;-59
2022/01/16 08:43:11;;;;;;;111.70;59.58;;;;;;;-2.77;59.25;95159.73;1728475;82;21142;-61
2022/01/16 08:45:40;;;;;;;112.75;60.08;;;;;;;-2.54;59.00;95141.75;1722572;81;21118;-60
2022/01/16 08:48:09;;;;;;;105.35;55.70;;;;;;;-2.33;58.86;95150.24;1734504;81;21554;-60
2022/01/16 08:50:39;;;;;;;100.30;57.08;;;;;;;-2.17;58.39;95148.25;1723324;81;21383;-60
2022/01/16 08:53:05;;;;;;;84.05;47.38;;;;;;;-2.04;58.30;95149.66;1725940;81;21100;-59
2022/01/16 08:55:37;;;;;;;71.12;40.55;;;;;;;-1.88;57.88;95144.94;1719313;81;21143;-61
2022/01/16 08:58:04;;;;;;;59.25;34.45;;;;;;;-1.65;57.37;95130.89;1709325;81;21112;-62
2022/01/16 09:00:32;;;;;;;67.50;38.10;;;;;;;-1.48;56.66;95122.30;1736592;82;20979;-60
2022/01/16 09:03:00;;;;;;;90.57;46.73;;;;;;;-1.41;56.36;95129.14;1681515;83;21485;-63
2022/01/16 09:05:30;;;;;;;129.27;67.00;;;;;;;-1.28;56.07;95121.86;1710581;81;21511;-60
2022/01/16 09:07:58;;;;;;;136.62;72.30;;;;;;;-0.97;55.95;95117.47;1737206;81;21149;-61
2022/01/16 09:10:25;;;;;;;135.15;69.82;;;;;;;-0.61;55.72;95110.63;1711762;82;21105;-59
2022/01/16 09:12:53;;;;;;;124.10;65.92;;;;;;;-0.26;55.28;95117.81;1726377;81;21403;-61
2022/01/16 09:15:20;;;;;;;102.92;54.03;;;;;;;0.27;54.24;95108.52;1703031;81;21063;-59
2022/01/16 09:17:48;;;;;;;84.15;45.08;;;;;;;0.84;53.10;95107.02;1681208;83;21594;-63
2022/01/16 09:20:14;;;;;;;65.60;37.73;;;;;;;1.27;52.22;95105.55;1703877;83;21078;-61
2022/01/16 09:22:44;;;;;;;62.33;35.52;;;;;;;1.57;50.93;95095.25;1690976;84;21097;-61
2022/01/16 09:25:13;;;;;;;67.92;34.38;;;;;;;1.68;49.81;95090.63;1693334;82;21065;-66
2022/01/16 09:27:40;;;;;;;65.30;33.60;;;;;;;1.81;49.56;95091.84;1677929;83;21078;-61
2022/01/16 09:30:09;;;;;;;75.05;34.88;;;;;;;2.06;48.99;95077.76;1699658;83;22110;-59
2022/01/16 09:32:38;;;;;;;63.25;33.58;;;;;;;2.37;48.43;95066.97;1697261;83;21449;-60
2022/01/16 09:35:06;;;;;;;60.60;32.30;;;;;;;2.78;47.65;95067.33;1689537;83;21129;-61
2022/01/16 09:37:33;;;;;;;61.65;33.80;;;;;;;3.14;46.73;95066.11;1681942;82;21022;-64
2022/01/16 09:40:00;;;;;;;58.38;31.75;;;;;;;3.25;46.42;95057.36;1737522;81;21004;-62
2022/01/16 09:42:27;;;;;;;51.08;29.75;;;;;;;3.26;46.11;95042.59;1715738;81;21553;-63
2022/01/16 09:44:54;;;;;;;54.73;33.65;;;;;;;3.31;45.69;95041.62;1712629;82;21976;-63
2022/01/16 09:47:23;;;;;;;64.32;39.58;;;;;;;3.54;45.43;95045.39;1748507;82;21011;-63
2022/01/16 09:49:50;;;;;;;82.00;45.35;;;;;;;3.82;44.91;95033.03;1717733;82;21027;-61
2022/01/16 09:52:19;;;;;;;70.92;39.67;;;;;;;3.87;44.29;95028.53;1697443;83;20978;-60
2022/01/16 09:54:47;;;;;;;65.42;36.17;;;;;;;3.60;44.30;95032.16;1716286;81;21094;-61
2022/01/16 09:57:16;;;;;;;62.85;35.23;;;;;;;3.29;44.52;95030.94;1723601;81;21143;-59
2022/01/16 09:59:45;;;;;;;67.53;38.35;;;;;;;3.23;45.00;95021.05;1725894;81;21054;-62
2022/01/16 10:02:14;;;;;;;62.50;33.15;;;;;;;3.39;45.05;95016.54;1733434;81;21055;-60
2022/01/16 10:04:44;;;;;;;59.90;32.63;;;;;;;3.66;45.20;95025.92;1721675;82;21038;-61
2022/01/16 10:07:15;;;;;;;52.17;30.08;;;;;;;4.12;44.64;95012.84;1715866;82;21188;-60
2022/01/16 10:09:46;;;;;;;51.98;28.02;;;;;;;4.57;44.43;95006.25;1693804;81;21808;-63
2022/01/16 10:12:15;;;;;;;62.25;33.33;;;;;;;4.95;43.78;95006.48;1732419;82;21562;-61
2022/01/16 10:14:46;;;;;;;57.88;29.95;;;;;;;5.15;43.08;95002.59;1695861;81;21038;-61
2022/01/16 10:17:17;;;;;;;42.23;27.02;;;;;;;4.98;42.94;95004.91;1674545;83;21118;-60
2022/01/16 10:19:46;;;;;;;60.38;34.60;;;;;;;4.72;43.12;95006.89;1704369;82;21098;-62
2022/01/16 10:22:15;;;;;;;56.40;32.30;;;;;;;4.44;43.19;95015.32;1687008;83;21400;-61
2022/01/16 10:24:42;;;;;;;64.77;35.17;;;;;;;4.40;43.16;95003.08;1722351;81;21185;-61
2022/01/16 10:27:14;;;;;;;85.50;42.75;;;;;;;4.35;42.84;95007.61;1694361;81;21102;-61
2022/01/16 10:29:45;;;;;;;83.87;45.08;;;;;;;4.20;43.42;95005.40;1686608;83;21070;-61
2022/01/16 10:32:17;;;;;;;67.08;37.23;;;;;;;4.17;43.75;95004.23;1705637;82;21023;-62
2022/01/16 10:34:46;;;;;;;64.47;40.63;;;;;;;4.42;43.51;94992.55;1728088;82;21148;-62
2022/01/16 10:37:26;;;;;;;64.22;38.13;;;;;;;4.74;43.42;94983.52;1721902;82;22190;-67
2022/01/16 10:40:09;;;;;;;65.42;35.90;;;;;;;5.17;42.96;94979.17;1708707;81;21470;-59
2022/01/16 10:42:39;;;;;;;68.00;36.98;;;;;;;5.65;42.29;94978.40;1706987;83;21046;-60
2022/01/16 10:45:12;;;;;;;62.73;39.88;;;;;;;6.07;41.50;94960.08;1695403;83;21044;-59
2022/01/16 10:47:45;;;;;;;64.42;38.28;;;;;;;6.34;40.95;94949.31;1708459;81;21152;-61
2022/01/16 10:50:19;;;;;;;70.22;42.20;;;;;;;6.48;40.98;94942.87;1697642;82;21570;-61
2022/01/16 10:53:08;;;;;;;54.35;33.45;;;;;;;6.69;40.00;94939.16;1689893;83;21042;-63
2022/01/16 10:55:43;;;;;;;39.95;25.35;;;;;;;6.84;39.14;94934.20;1661405;84;21094;-62
2022/01/16 10:58:15;;;;;;;49.20;29.37;;;;;;;7.05;38.75;94920.91;1668222;85;21053;-59
2022/01/16 11:00:56;;;;;;;43.02;26.93;;;;;;;7.23;38.00;94923.48;1669946;84;21993;-61
2022/01/16 11:03:26;;;;;;;40.95;26.00;;;;;;;7.27;37.86;94926.92;1630119;86;21086;-60
2022/01/16 11:05:53;;;;;;;47.05;26.37;;;;;;;7.48;37.36;94927.09;1645727;84;21018;-63
2022/01/16 11:08:26;;;;;;;33.40;21.70;;;;;;;7.66;36.80;94925.52;1671471;84;21013;-60
2022/01/16 11:10:58;;;;;;;36.05;22.85;;;;;;;7.89;36.44;94917.17;1657441;85;21559;-62
2022/01/16 11:13:30;;;;;;;37.48;21.55;;;;;;;8.39;36.46;94912.11;1663401;85;21189;-60
2022/01/16 11:15:59;;;;;;;37.53;23.60;;;;;;;9.04;35.48;94908.84;1649426;84;21101;-60
2022/01/16 11:18:26;;;;;;;35.55;21.55;;;;;;;9.30;35.25;94910.49;1637546;86;21077;-59
2022/01/16 11:26:21;;;;;;;36.77;20.37;;;;;;;8.87;33.32;94887.38;1684502;84;21174;-61
2022/01/16 11:28:51;;;;;;;20.75;11.10;;;;;;;8.49;33.97;94886.42;1701211;84;21066;-60
2022/01/16 11:31:18;;;;;;;18.73;10.00;;;;;;;8.26;33.17;94883.84;1710498;81;21049;-59
2022/01/16 11:33:45;;;;;;;19.27;10.75;;;;;;;7.77;33.02;94874.04;1740788;81;20959;-60
2022/01/16 11:36:23;;;;;;;20.48;11.40;;;;;;;7.28;33.76;94872.37;1756120;80;21320;-62
2022/01/16 11:39:05;;;;;;;21.10;13.00;;;;;;;6.93;34.25;94865.48;1741913;81;22284;-61
2022/01/16 11:41:37;;;;;;;20.35;12.60;;;;;;;6.70;34.72;94860.05;1727528;81;21053;-59
2022/01/16 11:44:09;;;;;;;19.62;10.95;;;;;;;6.64;35.57;94849.44;1755237;81;21041;-60
2022/01/16 11:46:41;;;;;;;17.23;9.80;;;;;;;6.87;34.76;94851.36;1750524;80;21577;-60
2022/01/16 11:49:13;;;;;;;18.67;10.35;;;;;;;7.29;34.24;94840.29;1749329;81;21067;-62
2022/01/16 11:51:51;;;;;;;18.15;11.78;;;;;;;7.73;33.59;94836.36;1714567;82;21291;-63
2022/01/16 11:54:30;;;;;;;16.23;10.00;;;;;;;8.45;32.53;94839.11;1707507;81;21192;-60
2022/01/16 11:57:08;;;;;;;20.65;12.60;;;;;;;9.14;31.55;94830.17;1708060;81;21096;-64
2022/01/16 11:59:40;;;;;;;21.12;11.95;;;;;;;9.78;31.49;94824.33;1757621;81;21013;-59
2022/01/16 12:02:16;;;;;;;20.48;14.47;;;;;;;10.86;29.98;94832.50;1731037;80;21097;-60
2022/01/16 12:04:57;;;;;;;20.60;11.93;;;;;;;11.59;28.98;94829.05;1728739;82;21144;-60
2022/01/16 12:07:45;;;;;;;19.67;13.50;;;;;;;12.08;28.02;94816.08;1722659;81;21416;-60
2022/01/16 12:10:12;;;;;;;19.52;12.28;;;;;;;12.35;28.21;94816.17;1727764;81;21404;-59
2022/01/16 12:12:39;;;;;;;19.23;10.48;;;;;;;12.90;27.06;94801.96;1716846;81;20965;-58
2022/01/16 12:15:22;;;;;;;16.12;10.18;;;;;;;13.26;26.27;94812.27;1729277;82;21125;-59
2022/01/16 12:17:49;;;;;;;15.83;10.25;;;;;;;13.40;25.70;94817.14;1713802;82;21555;-61